Thursday, January 18, 2018, 11:03 PM EST
Back to Local

KBFD, Bradford Regional Airport

Location: Cyclone, PA, United States Lat: 41.8
Local Time: 11:03 PM EST ( 4:03 GMT) Lon: -78.633
Time Zone: US/Eastern Elev: 2142 ft

Show me the last for .
Show Decoded

2018-01-18 21:53 METAR KBFD 190253Z AUTO 24008G17KT 210V270 10SM CLR M07/M12 A2995 RMK AO2 SLP179
                 T10721122 58001 =
2018-01-18 20:53 METAR KBFD 190153Z AUTO VRB06G15KT 10SM CLR M08/M12 A2996 RMK AO2 SLP186
                 T10781122 =
2018-01-18 19:53 METAR KBFD 190053Z AUTO 26005KT 10SM CLR M08/M12 A2997 RMK AO2 SLP188 T10781122
                 =
2018-01-18 18:53 METAR KBFD 182353Z AUTO 24006G15KT 10SM CLR M08/M12 A2996 RMK AO2 SLP183 60000
                 T10781122 11061 21106 53003 =
2018-01-18 17:53 METAR KBFD 182253Z AUTO 23007KT 10SM CLR M08/M12 A2995 RMK AO2 SLP180 T10781122
                 =
2018-01-18 16:53 METAR KBFD 182153Z AUTO 24009G15KT 210V270 10SM CLR M07/M12 A2994 RMK AO2 SLP177
                 T10721117 =
2018-01-18 15:53 METAR KBFD 182053Z AUTO 25009G17KT 220V280 10SM CLR M07/M12 A2995 RMK AO2 SLP178
                 60000 T10671122 56010 =
2018-01-18 14:53 METAR KBFD 181953Z AUTO 23007KT 10SM CLR M07/M12 A2996 RMK AO2 SLP181 T10671122
                 =
2018-01-18 14:16 METAR KBFD 181916Z AUTO 23007KT 10SM SCT015 M08/M13 A2995 RMK AO2 T10831128 =
2018-01-18 14:03 METAR KBFD 181903Z AUTO 22006KT 9SM BKN015 M09/M13 A2996 RMK AO2 T10941128 =
2018-01-18 13:53 METAR KBFD 181853Z AUTO 25007KT 9SM OVC014 M09/M13 A2996 RMK AO2 SNE17 SLP186
                 P0000 T10941128 =
2018-01-18 12:53 METAR KBFD 181753Z AUTO 28006KT 4SM -SN OVC012 M11/M14 A2998 RMK AO2 SLP193
                 P0000 60000 T11061139 11106 21144 58014 =
2018-01-18 12:24 METAR KBFD 181724Z AUTO 26007G15KT 200V300 3SM -SN OVC012 M11/M14 A2999 RMK AO2
                 P0000 T11111139 =
2018-01-18 11:53 METAR KBFD 181653Z AUTO 24010G15KT 2SM -SN BR OVC011 M12/M14 A3001 RMK AO2
                 SLP203 P0000 T11171139 =
2018-01-18 11:00 METAR KBFD 181600Z AUTO 24007KT 200V300 2SM -SN BR OVC011 M12/M14 A3002 RMK AO2
                 P0000 T11221144 =
2018-01-18 10:53 METAR KBFD 181553Z AUTO 25008G17KT 3SM -SN OVC011 M12/M15 A3002 RMK AO2 SNB46
                 SLP209 P0000 T11221150 =
2018-01-18 09:53 METAR KBFD 181453Z AUTO 25007G17KT 5SM BR OVC011 M13/M16 A3002 RMK AO2 SLP210
                 T11331156 53006 =
2018-01-18 09:29 METAR KBFD 181429Z AUTO 24009G19KT 200V260 6SM BR BKN012 M14/M16 A3001 RMK AO2
                 T11391161 =
2018-01-18 08:53 METAR KBFD 181353Z AUTO 24008G18KT 8SM FEW009 M14/M16 A3001 RMK AO2 SLP204
                 T11441161 =
2018-01-18 07:53 METAR KBFD 181253Z AUTO 24008KT 200V270 9SM CLR M14/M17 A3001 RMK AO2 SLP204
                 T11441167 =
2018-01-18 06:53 METAR KBFD 181153Z AUTO 25007KT 10SM CLR M14/M17 A3000 RMK AO2 SLP203 I6000
                 T11441167 11139 21150 56014 =
2018-01-18 05:53 METAR KBFD 181053Z AUTO VRB06KT 10SM CLR M15/M17 A3001 RMK AO2 SLP205 T11501167
                 =
2018-01-18 04:53 METAR KBFD 180953Z AUTO 23008KT 9SM CLR M15/M17 A3003 RMK AO2 SLP210 I1000
                 T11501167 =
2018-01-18 03:53 METAR KBFD 180853Z AUTO 25008KT 9SM CLR M15/M17 A3005 RMK AO2 SLP217 I1000 I3000
                 T11501167 58007 =
2018-01-18 02:53 METAR KBFD 180753Z AUTO VRB06KT 8SM CLR M14/M17 A3006 RMK AO2 SLP220 T11441167 =
2018-01-18 02:02 METAR KBFD 180702Z AUTO 24006KT 7SM SCT007 M14/M16 A3007 RMK AO2 T11441161 =
2018-01-18 01:53 METAR KBFD 180653Z AUTO 24009KT 220V280 6SM BR BKN008 M14/M16 A3006 RMK AO2
                 SLP222 I1000 T11441161 =
2018-01-18 01:31 METAR KBFD 180631Z AUTO 24008G14KT 7SM BKN008 M14/M16 A3006 RMK AO2 I1000
                 T11391156 =
2018-01-18 01:07 METAR KBFD 180607Z AUTO 24009KT 7SM SCT008 M14/M16 A3007 RMK AO2 I1000 T11391156
                 =
2018-01-18 00:53 METAR KBFD 180553Z AUTO 24007KT 7SM BKN008 M14/M16 A3007 RMK AO2 SLP224
                 T11391156 11122 21139 58021 =
2018-01-17 23:53 METAR KBFD 180453Z AUTO 25007KT 7SM OVC008 M13/M15 A3010 RMK AO2 SLP234
                 T11331150 410941150 =

Support USWX by starting your Amazon purchase here.